Time;durP1;ratioP1;P1;durP2;ratioP2;P2;SDS_P1;SDS_P2;PMS_P1;PMS_P2;Temp;Humidity;BMP_temperature;BMP_pressure;BME280_temperature;BME280_humidity;BME280_pressure;Samples;Min_cycle;Max_cycle;Signal;HPM_P1;HPM_P2
2021/03/07 00:00:45;;;;;;;5.70;3.50;;;;;;;;;;5135638;27;20562;-76
2021/03/07 00:03:10;;;;;;;7.53;3.20;;;;;;;;;;5119879;27;20038;-76
2021/03/07 00:05:36;;;;;;;4.68;3.03;;;;;;;;;;5138157;27;20031;-76
2021/03/07 00:08:02;;;;;;;8.60;3.72;;;;;;;;;;5137770;27;20031;-76
2021/03/07 00:10:27;;;;;;;4.97;3.50;;;;;;;;;;5119761;27;20035;-76
2021/03/07 00:12:52;;;;;;;5.68;3.42;;;;;;;;;;5125440;27;20031;-76
2021/03/07 00:15:19;;;;;;;2.97;2.47;;;;;;;;;;5117389;28;20046;-76
2021/03/07 00:17:46;;;;;;;5.43;3.03;;;;;;;;;;5117276;28;20067;-76
2021/03/07 00:20:14;;;;;;;4.05;3.25;;;;;;;;;;5132723;27;20185;-76
2021/03/07 00:22:40;;;;;;;5.05;3.03;;;;;;;;;;5137905;27;20046;-76
2021/03/07 00:25:08;;;;;;;4.65;3.10;;;;;;;;;;5137758;27;20035;-76
2021/03/07 00:27:34;;;;;;;5.80;3.17;;;;;;;;;;5137644;27;20039;-76
2021/03/07 00:29:59;;;;;;;6.57;3.40;;;;;;;;;;5137800;27;20080;-76
2021/03/07 00:32:25;;;;;;;7.93;2.80;;;;;;;;;;5137607;27;20524;-76
2021/03/07 00:34:50;;;;;;;5.82;3.10;;;;;;;;;;5137133;27;20091;-76
2021/03/07 00:37:16;;;;;;;4.88;2.95;;;;;;;;;;5117354;27;20538;-76
2021/03/07 00:39:41;;;;;;;5.30;3.05;;;;;;;;;;5098577;28;20457;-76
2021/03/07 00:42:07;;;;;;;8.68;3.25;;;;;;;;;;5098459;28;20481;-77
2021/03/07 00:44:32;;;;;;;6.25;3.17;;;;;;;;;;5098402;28;20055;-77
2021/03/07 00:46:58;;;;;;;6.28;3.45;;;;;;;;;;5120305;27;20118;-76
2021/03/07 00:49:29;;;;;;;8.60;4.28;;;;;;;;;;5137038;27;20066;-76
2021/03/07 00:51:55;;;;;;;5.20;3.22;;;;;;;;;;5117865;27;20043;-76
2021/03/07 00:54:21;;;;;;;3.25;2.50;;;;;;;;;;5136847;27;20396;-76
2021/03/07 00:56:47;;;;;;;6.85;3.15;;;;;;;;;;5136998;27;20481;-76
2021/03/07 00:59:13;;;;;;;4.03;2.85;;;;;;;;;;5136932;27;20594;-76
2021/03/07 01:01:39;;;;;;;4.18;3.10;;;;;;;;;;5137031;27;20077;-76
2021/03/07 01:04:04;;;;;;;5.65;3.28;;;;;;;;;;5136567;27;20524;-76
2021/03/07 01:06:30;;;;;;;6.13;3.30;;;;;;;;;;5136360;27;20499;-76
2021/03/07 01:08:55;;;;;;;5.57;3.83;;;;;;;;;;5136919;27;20023;-76
2021/03/07 01:11:21;;;;;;;5.07;3.47;;;;;;;;;;5136284;27;20027;-76
2021/03/07 01:13:46;;;;;;;4.82;3.50;;;;;;;;;;5136692;27;20095;-76
2021/03/07 01:16:12;;;;;;;6.90;4.00;;;;;;;;;;5136899;27;20034;-76
2021/03/07 01:18:38;;;;;;;10.05;5.80;;;;;;;;;;5136299;27;20159;-76
2021/03/07 01:21:04;;;;;;;11.55;6.43;;;;;;;;;;5118388;27;20599;-76
2021/03/07 01:23:32;;;;;;;14.20;7.10;;;;;;;;;;5136764;27;20076;-76
2021/03/07 01:25:57;;;;;;;14.43;6.32;;;;;;;;;;5136285;27;20126;-76
2021/03/07 01:28:23;;;;;;;9.82;5.80;;;;;;;;;;5136624;27;20468;-76
2021/03/07 01:30:49;;;;;;;12.93;6.05;;;;;;;;;;5135713;27;20039;-76
2021/03/07 01:33:14;;;;;;;11.45;6.63;;;;;;;;;;5118158;27;20488;-76
2021/03/07 01:35:39;;;;;;;10.75;6.15;;;;;;;;;;5136114;27;20035;-76
2021/03/07 01:38:05;;;;;;;9.60;5.50;;;;;;;;;;5136333;27;20042;-76
2021/03/07 01:40:45;;;;;;;18.23;6.88;;;;;;;;;;5117692;27;20035;-76
2021/03/07 01:43:12;;;;;;;13.63;6.63;;;;;;;;;;5117814;27;20088;-76
2021/03/07 01:45:38;;;;;;;12.65;6.82;;;;;;;;;;5135571;27;20493;-76
2021/03/07 01:48:06;;;;;;;13.93;7.10;;;;;;;;;;5136126;27;20038;-76
2021/03/07 01:50:34;;;;;;;15.77;6.93;;;;;;;;;;5116690;27;20035;-76
2021/03/07 01:53:00;;;;;;;13.50;6.13;;;;;;;;;;5136229;27;20130;-76
2021/03/07 01:55:30;;;;;;;8.25;5.22;;;;;;;;;;5136223;27;20038;-77
2021/03/07 01:58:03;;;;;;;16.60;6.30;;;;;;;;;;5135652;27;20476;-76
2021/03/07 02:00:29;;;;;;;9.38;4.95;;;;;;;;;;5117354;27;20046;-76
2021/03/07 02:02:55;;;;;;;8.30;4.82;;;;;;;;;;5117566;27;20400;-76
2021/03/07 02:05:21;;;;;;;5.60;3.97;;;;;;;;;;5135767;27;20074;-76
2021/03/07 02:07:48;;;;;;;5.93;4.05;;;;;;;;;;5135785;27;20496;-76
2021/03/07 02:10:29;;;;;;;8.75;4.18;;;;;;;;;;5135387;27;20034;-76
2021/03/07 02:12:58;;;;;;;8.60;4.03;;;;;;;;;;5135727;27;20027;-76
2021/03/07 02:15:26;;;;;;;6.30;3.53;;;;;;;;;;5135490;27;20454;-76
2021/03/07 02:17:51;;;;;;;7.13;3.42;;;;;;;;;;5117409;27;20114;-76
2021/03/07 02:20:20;;;;;;;5.63;4.20;;;;;;;;;;5135546;27;20074;-76
2021/03/07 02:23:12;;;;;;;9.02;4.05;;;;;;;;;;5134547;27;20037;-76
2021/03/07 02:25:38;;;;;;;8.57;4.20;;;;;;;;;;5134648;27;20088;-76
2021/03/07 02:28:06;;;;;;;8.27;3.97;;;;;;;;;;5135055;27;20031;-76
2021/03/07 02:30:33;;;;;;;8.27;4.18;;;;;;;;;;5116937;27;20062;-76
2021/03/07 02:33:22;;;;;;;8.57;4.38;;;;;;;;;;5135448;27;20039;-76
2021/03/07 02:36:06;;;;;;;7.97;4.15;;;;;;;;;;5134780;27;20118;-76
2021/03/07 02:38:34;;;;;;;6.60;3.72;;;;;;;;;;5134346;27;20042;-76
2021/03/07 02:41:00;;;;;;;5.47;3.65;;;;;;;;;;5135082;27;20027;-76
2021/03/07 02:43:28;;;;;;;7.38;4.30;;;;;;;;;;5116018;27;20027;-76
2021/03/07 02:45:55;;;;;;;5.88;3.60;;;;;;;;;;5134804;27;20465;-76
2021/03/07 02:48:22;;;;;;;6.30;4.20;;;;;;;;;;5134143;27;20023;-76
2021/03/07 02:50:49;;;;;;;4.90;3.33;;;;;;;;;;5116449;27;20039;-76
2021/03/07 02:53:18;;;;;;;8.07;3.35;;;;;;;;;;5134917;27;20074;-76
2021/03/07 02:55:46;;;;;;;6.78;3.67;;;;;;;;;;5116378;27;20035;-76
2021/03/07 02:58:15;;;;;;;4.85;3.50;;;;;;;;;;5134959;27;20067;-76
2021/03/07 03:00:49;;;;;;;5.03;3.22;;;;;;;;;;5134499;27;20027;-76
2021/03/07 03:03:15;;;;;;;4.18;3.08;;;;;;;;;;5116213;27;20118;-76
2021/03/07 03:05:41;;;;;;;11.40;3.83;;;;;;;;;;5134552;27;20126;-76
2021/03/07 03:08:07;;;;;;;4.82;3.40;;;;;;;;;;5134635;27;20027;-76
2021/03/07 03:10:35;;;;;;;6.57;4.10;;;;;;;;;;5116364;27;20058;-76
2021/03/07 03:13:02;;;;;;;6.70;3.92;;;;;;;;;;5134589;27;20103;-76
2021/03/07 03:15:29;;;;;;;6.78;3.72;;;;;;;;;;5134550;27;20445;-76
2021/03/07 03:17:56;;;;;;;7.82;4.13;;;;;;;;;;5133951;27;20035;-76
2021/03/07 03:20:22;;;;;;;7.88;4.07;;;;;;;;;;5115288;27;20066;-77
2021/03/07 03:22:48;;;;;;;8.65;4.28;;;;;;;;;;5115999;27;20437;-76
2021/03/07 03:25:14;;;;;;;5.38;3.85;;;;;;;;;;5115998;28;20479;-76
2021/03/07 03:27:40;;;;;;;8.05;4.03;;;;;;;;;;5134296;27;20034;-76
2021/03/07 03:30:13;;;;;;;6.88;4.60;;;;;;;;;;5134107;27;20031;-76
2021/03/07 03:32:39;;;;;;;5.13;3.92;;;;;;;;;;5115967;28;20122;-76
2021/03/07 03:35:09;;;;;;;9.60;5.05;;;;;;;;;;5115812;27;20023;-76
2021/03/07 03:37:36;;;;;;;6.28;4.30;;;;;;;;;;5134279;27;20031;-77
2021/03/07 03:40:08;;;;;;;5.78;3.80;;;;;;;;;;5134036;27;20538;-77
2021/03/07 03:42:37;;;;;;;7.18;4.05;;;;;;;;;;5133833;28;20580;-76
2021/03/07 03:45:04;;;;;;;5.45;3.92;;;;;;;;;;5133922;27;20039;-76
2021/03/07 03:47:30;;;;;;;7.60;4.22;;;;;;;;;;5134132;28;20076;-76
2021/03/07 03:49:59;;;;;;;8.15;4.65;;;;;;;;;;5134226;28;20035;-76
2021/03/07 03:52:26;;;;;;;6.35;4.18;;;;;;;;;;5134137;28;20046;-76
2021/03/07 03:55:05;;;;;;;6.22;3.72;;;;;;;;;;5133509;27;20035;-76
2021/03/07 03:57:32;;;;;;;9.18;4.13;;;;;;;;;;5133002;28;20528;-76
2021/03/07 04:00:01;;;;;;;7.22;4.35;;;;;;;;;;5133952;28;20042;-76
2021/03/07 04:02:27;;;;;;;6.50;4.28;;;;;;;;;;5133897;28;20028;-76
2021/03/07 04:04:56;;;;;;;10.15;6.63;;;;;;;;;;5134072;27;20088;-76
2021/03/07 04:07:23;;;;;;;10.95;4.28;;;;;;;;;;5133940;28;20081;-76
2021/03/07 04:09:53;;;;;;;8.07;4.65;;;;;;;;;;5134118;28;20035;-76
2021/03/07 04:12:20;;;;;;;8.45;4.53;;;;;;;;;;5133799;28;20534;-76
2021/03/07 04:14:46;;;;;;;7.63;4.03;;;;;;;;;;5133640;27;20035;-76
2021/03/07 04:17:13;;;;;;;6.60;4.53;;;;;;;;;;5115273;28;20035;-76
2021/03/07 04:19:39;;;;;;;8.07;4.72;;;;;;;;;;5133048;28;20028;-76
2021/03/07 04:22:05;;;;;;;8.38;4.50;;;;;;;;;;5133845;28;20031;-76
2021/03/07 04:24:31;;;;;;;6.38;4.63;;;;;;;;;;5133960;27;20031;-76
2021/03/07 04:26:57;;;;;;;8.80;4.93;;;;;;;;;;5133852;28;20035;-76
2021/03/07 04:29:25;;;;;;;7.25;4.22;;;;;;;;;;5133522;28;20034;-76
2021/03/07 04:31:54;;;;;;;5.78;3.88;;;;;;;;;;5098890;28;20118;-76
2021/03/07 04:34:21;;;;;;;4.93;3.60;;;;;;;;;;5133366;27;20142;-76
2021/03/07 04:36:46;;;;;;;8.90;3.95;;;;;;;;;;5133321;28;20063;-76
2021/03/07 04:39:12;;;;;;;6.57;4.35;;;;;;;;;;5133772;28;20070;-77
2021/03/07 04:41:38;;;;;;;8.43;4.28;;;;;;;;;;5133781;28;20127;-76
2021/03/07 04:44:03;;;;;;;8.20;5.07;;;;;;;;;;5133262;27;20494;-76
2021/03/07 04:46:29;;;;;;;6.30;4.30;;;;;;;;;;5135138;27;20038;-76
2021/03/07 04:48:56;;;;;;;8.95;5.07;;;;;;;;;;5137366;27;20038;-76
2021/03/07 04:51:22;;;;;;;10.80;4.88;;;;;;;;;;5137138;27;20473;-76
2021/03/07 04:53:47;;;;;;;8.50;4.55;;;;;;;;;;5137250;27;20504;-76
2021/03/07 04:56:13;;;;;;;6.45;3.90;;;;;;;;;;5136282;27;20111;-76
2021/03/07 04:58:39;;;;;;;6.95;4.55;;;;;;;;;;5137216;27;20080;-76
2021/03/07 05:01:04;;;;;;;6.80;4.57;;;;;;;;;;5136886;27;20031;-76
2021/03/07 05:03:31;;;;;;;8.00;4.85;;;;;;;;;;5137108;27;20027;-77
2021/03/07 05:05:57;;;;;;;10.40;5.25;;;;;;;;;;5136729;27;20027;-76
2021/03/07 05:08:22;;;;;;;9.60;4.75;;;;;;;;;;5137087;27;20472;-77
2021/03/07 05:10:48;;;;;;;7.05;4.05;;;;;;;;;;5136768;27;20050;-76
2021/03/07 05:13:13;;;;;;;8.23;4.80;;;;;;;;;;5136536;27;20046;-77
2021/03/07 05:15:38;;;;;;;5.45;3.97;;;;;;;;;;5135980;27;20031;-77
2021/03/07 05:18:05;;;;;;;7.65;4.45;;;;;;;;;;5136698;27;20118;-76
2021/03/07 05:20:31;;;;;;;6.45;4.00;;;;;;;;;;5117999;27;20087;-76
2021/03/07 05:22:56;;;;;;;12.80;4.63;;;;;;;;;;5136709;27;20039;-76
2021/03/07 05:25:22;;;;;;;6.28;4.45;;;;;;;;;;5136575;27;20041;-76
2021/03/07 05:27:47;;;;;;;7.38;4.63;;;;;;;;;;5136531;27;20039;-76
2021/03/07 05:30:13;;;;;;;9.38;4.97;;;;;;;;;;5136491;27;20039;-76
2021/03/07 05:32:39;;;;;;;8.63;4.75;;;;;;;;;;5118160;27;20042;-76
2021/03/07 05:35:04;;;;;;;8.32;4.75;;;;;;;;;;5136391;27;20354;-76
2021/03/07 05:37:30;;;;;;;7.47;4.65;;;;;;;;;;5136380;27;20071;-76
2021/03/07 05:39:55;;;;;;;12.07;5.13;;;;;;;;;;5136217;27;20464;-76
2021/03/07 05:42:21;;;;;;;8.68;5.30;;;;;;;;;;5136139;27;20114;-76
2021/03/07 05:44:47;;;;;;;11.20;4.90;;;;;;;;;;5117676;27;20504;-76
2021/03/07 05:47:15;;;;;;;7.85;4.85;;;;;;;;;;5136073;27;20045;-76
2021/03/07 05:49:41;;;;;;;7.72;4.63;;;;;;;;;;5135736;27;20030;-76
2021/03/07 05:52:06;;;;;;;9.10;5.45;;;;;;;;;;5117005;27;20030;-76
2021/03/07 05:54:32;;;;;;;8.98;6.15;;;;;;;;;;5135608;27;20034;-76
2021/03/07 05:56:59;;;;;;;11.35;6.60;;;;;;;;;;5135399;27;20341;-76
2021/03/07 05:59:25;;;;;;;14.10;7.63;;;;;;;;;;5135525;27;20043;-76
2021/03/07 06:01:50;;;;;;;9.98;6.82;;;;;;;;;;5135972;27;20042;-76
2021/03/07 06:04:16;;;;;;;10.65;7.53;;;;;;;;;;5135814;27;20073;-77
2021/03/07 06:06:41;;;;;;;12.65;7.57;;;;;;;;;;5135494;27;20039;-76
2021/03/07 06:09:16;;;;;;;9.65;6.47;;;;;;;;;;5135591;27;20038;-76
2021/03/07 06:11:41;;;;;;;12.95;6.72;;;;;;;;;;5135657;27;20039;-76
2021/03/07 06:14:30;;;;;;;11.20;6.15;;;;;;;;;;5135437;27;20126;-76
2021/03/07 06:17:13;;;;;;;11.02;6.93;;;;;;;;;;5135567;27;20038;-76
2021/03/07 06:20:01;;;;;;;13.50;6.63;;;;;;;;;;5134330;27;20522;-76
2021/03/07 06:22:31;;;;;;;11.52;6.97;;;;;;;;;;5135473;27;20365;-76
2021/03/07 06:24:57;;;;;;;14.15;7.22;;;;;;;;;;5135128;27;20031;-76
2021/03/07 06:27:24;;;;;;;11.63;7.18;;;;;;;;;;5135369;27;20077;-76
2021/03/07 06:30:09;;;;;;;19.98;7.30;;;;;;;;;;5135075;27;20073;-76
2021/03/07 06:32:38;;;;;;;12.38;6.50;;;;;;;;;;5134960;27;20095;-77
2021/03/07 06:35:07;;;;;;;11.15;7.25;;;;;;;;;;5135290;27;20023;-76
2021/03/07 06:37:33;;;;;;;9.32;6.35;;;;;;;;;;5134797;27;20384;-77
2021/03/07 06:39:58;;;;;;;9.50;6.43;;;;;;;;;;5099766;27;20476;-76
2021/03/07 06:42:23;;;;;;;8.50;6.47;;;;;;;;;;5135151;27;20054;-76
2021/03/07 06:44:54;;;;;;;11.00;6.70;;;;;;;;;;5133940;27;20051;-76
2021/03/07 06:47:20;;;;;;;8.52;5.78;;;;;;;;;;5135000;27;20069;-76
2021/03/07 06:49:45;;;;;;;8.90;5.85;;;;;;;;;;5116011;27;20059;-76
2021/03/07 06:52:21;;;;;;;7.40;5.15;;;;;;;;;;5135158;27;20088;-76
2021/03/07 06:55:05;;;;;;;8.65;6.15;;;;;;;;;;5134612;27;20041;-76
2021/03/07 06:57:31;;;;;;;7.65;5.18;;;;;;;;;;5134611;27;20031;-76
2021/03/07 06:59:56;;;;;;;9.00;5.60;;;;;;;;;;5116476;27;20088;-76
2021/03/07 07:02:23;;;;;;;8.50;6.05;;;;;;;;;;5134691;27;20081;-76
2021/03/07 07:04:48;;;;;;;10.80;5.88;;;;;;;;;;5134873;27;20395;-76
2021/03/07 07:07:16;;;;;;;11.38;6.25;;;;;;;;;;5134410;27;20031;-76
2021/03/07 07:09:44;;;;;;;8.60;5.80;;;;;;;;;;5134280;27;20049;-76
2021/03/07 07:12:20;;;;;;;8.23;5.88;;;;;;;;;;5134551;27;20031;-76
2021/03/07 07:14:47;;;;;;;10.55;6.05;;;;;;;;;;5134351;27;20065;-76
2021/03/07 07:17:19;;;;;;;8.60;5.43;;;;;;;;;;5134468;27;20019;-76
2021/03/07 07:19:47;;;;;;;13.20;7.28;;;;;;;;;;5134479;27;20410;-76
2021/03/07 07:22:15;;;;;;;9.57;6.72;;;;;;;;;;5115376;27;20023;-76
2021/03/07 07:24:42;;;;;;;10.43;7.38;;;;;;;;;;5134343;27;20096;-76
2021/03/07 07:27:09;;;;;;;11.60;6.70;;;;;;;;;;5133737;27;20042;-76
2021/03/07 07:29:35;;;;;;;8.85;5.95;;;;;;;;;;5134331;27;20083;-75
2021/03/07 07:32:10;;;;;;;10.40;6.97;;;;;;;;;;5134696;27;20121;-75
2021/03/07 07:35:09;;;;;;;13.63;6.68;;;;;;;;;;5134459;27;20427;-76
2021/03/07 07:38:04;;;;;;;10.55;6.75;;;;;;;;;;5118136;28;20055;-78
2021/03/07 07:40:37;;;;;;;11.75;6.85;;;;;;;;;;5116737;27;20043;-76
2021/03/07 07:43:03;;;;;;;10.15;6.43;;;;;;;;;;5134154;28;20038;-75
2021/03/07 07:45:30;;;;;;;13.18;6.88;;;;;;;;;;5134028;27;20058;-75
2021/03/07 07:47:56;;;;;;;9.15;6.53;;;;;;;;;;5134294;28;20164;-74
2021/03/07 07:50:30;;;;;;;9.27;6.70;;;;;;;;;;5115890;28;20444;-75
2021/03/07 07:53:05;;;;;;;13.75;7.28;;;;;;;;;;5133577;28;20031;-75
2021/03/07 07:55:44;;;;;;;10.18;7.05;;;;;;;;;;5133939;27;20035;-75
2021/03/07 07:58:31;;;;;;;19.67;9.52;;;;;;;;;;5134070;28;20057;-74
2021/03/07 08:00:56;;;;;;;17.77;8.65;;;;;;;;;;5133842;28;20456;-75
2021/03/07 08:03:44;;;;;;;11.57;7.47;;;;;;;;;;5133904;28;20039;-74
2021/03/07 08:06:39;;;;;;;11.15;7.68;;;;;;;;;;5098870;28;20039;-78
2021/03/07 08:09:40;;;;;;;16.60;8.68;;;;;;;;;;5133510;28;20408;-72
2021/03/07 08:12:44;;;;;;;12.77;8.52;;;;;;;;;;5133507;28;20070;-76
2021/03/07 08:15:24;;;;;;;13.23;7.93;;;;;;;;;;5133670;27;20063;-73
2021/03/07 08:17:53;;;;;;;9.98;6.93;;;;;;;;;;5115321;28;20035;-74
2021/03/07 08:20:37;;;;;;;10.05;6.93;;;;;;;;;;5133897;27;20068;-75
2021/03/07 08:23:10;;;;;;;13.52;7.38;;;;;;;;;;5137802;27;20088;-75
2021/03/07 08:25:54;;;;;;;24.55;9.55;;;;;;;;;;5137832;27;20039;-73
2021/03/07 08:28:25;;;;;;;20.55;10.05;;;;;;;;;;5119416;27;20042;-73
2021/03/07 08:30:51;;;;;;;13.13;7.50;;;;;;;;;;5137288;27;20476;-73
2021/03/07 08:33:37;;;;;;;20.63;9.52;;;;;;;;;;5137343;27;20027;-73
2021/03/07 08:36:17;;;;;;;15.43;8.55;;;;;;;;;;5136741;27;20031;-74
2021/03/07 08:38:51;;;;;;;11.07;6.72;;;;;;;;;;5137464;27;20046;-75
2021/03/07 08:41:22;;;;;;;10.82;6.32;;;;;;;;;;5137255;27;20023;-75
2021/03/07 08:43:49;;;;;;;9.27;6.00;;;;;;;;;;5137508;27;20372;-76
2021/03/07 08:46:20;;;;;;;10.57;6.75;;;;;;;;;;5137902;27;20037;-74
2021/03/07 08:48:48;;;;;;;15.05;7.22;;;;;;;;;;5136451;27;20127;-74
2021/03/07 08:51:16;;;;;;;11.27;6.95;;;;;;;;;;5137235;27;20034;-77
2021/03/07 08:53:44;;;;;;;11.07;7.13;;;;;;;;;;5118505;27;20138;-77
2021/03/07 08:56:11;;;;;;;12.20;7.25;;;;;;;;;;5136301;27;20087;-76
2021/03/07 08:58:38;;;;;;;13.30;7.70;;;;;;;;;;5137055;27;20038;-76
2021/03/07 09:01:06;;;;;;;10.10;7.05;;;;;;;;;;5136996;27;20480;-76
2021/03/07 09:03:32;;;;;;;14.18;7.45;;;;;;;;;;5137260;27;20039;-75
2021/03/07 09:05:57;;;;;;;10.00;6.55;;;;;;;;;;5135445;27;20037;-75
2021/03/07 09:08:25;;;;;;;10.00;6.40;;;;;;;;;;5136416;27;20027;-75
2021/03/07 09:10:55;;;;;;;10.20;6.63;;;;;;;;;;5137169;27;20035;-76
2021/03/07 09:13:23;;;;;;;9.77;5.70;;;;;;;;;;5137092;27;20031;-76
2021/03/07 09:15:56;;;;;;;13.48;7.50;;;;;;;;;;5137346;27;20396;-77
2021/03/07 09:18:24;;;;;;;9.50;6.68;;;;;;;;;;5116832;27;20042;-76
2021/03/07 09:20:55;;;;;;;10.38;7.35;;;;;;;;;;5118193;27;20034;-76
2021/03/07 09:23:30;;;;;;;9.32;5.78;;;;;;;;;;5136455;27;20035;-76
2021/03/07 09:26:00;;;;;;;10.60;6.22;;;;;;;;;;5119125;27;20122;-79
2021/03/07 09:28:34;;;;;;;9.75;6.43;;;;;;;;;;5137061;27;20027;-77
2021/03/07 09:31:01;;;;;;;10.68;6.57;;;;;;;;;;5136689;27;20046;-77
2021/03/07 09:33:28;;;;;;;11.18;5.95;;;;;;;;;;5136537;27;20087;-76
2021/03/07 09:36:06;;;;;;;10.23;6.88;;;;;;;;;;5136548;27;20038;-76
2021/03/07 09:38:44;;;;;;;8.75;5.72;;;;;;;;;;5118472;27;20031;-78
2021/03/07 09:41:11;;;;;;;10.25;6.00;;;;;;;;;;5138142;27;20039;-77
2021/03/07 09:43:37;;;;;;;9.13;6.05;;;;;;;;;;5138362;27;20046;-77
2021/03/07 09:46:03;;;;;;;7.78;5.95;;;;;;;;;;5138272;27;20035;-77
2021/03/07 09:48:34;;;;;;;9.93;6.30;;;;;;;;;;5121917;27;20086;-78
2021/03/07 09:51:02;;;;;;;261.85;116.43;;;;;;;;;;5139170;27;20035;-74
2021/03/07 09:53:28;;;;;;;58.65;29.88;;;;;;;;;;5136110;27;20061;-73
2021/03/07 09:55:54;;;;;;;15.15;7.78;;;;;;;;;;5135437;27;20080;-74
2021/03/07 09:58:19;;;;;;;8.35;5.63;;;;;;;;;;5135862;27;20047;-74
2021/03/07 10:00:50;;;;;;;9.00;6.53;;;;;;;;;;5117571;27;20046;-75
2021/03/07 10:03:23;;;;;;;10.65;6.40;;;;;;;;;;5135520;27;20031;-76
2021/03/07 10:06:18;;;;;;;10.27;6.07;;;;;;;;;;5136138;27;20043;-76
2021/03/07 10:08:45;;;;;;;9.43;5.75;;;;;;;;;;5136060;27;20034;-76
2021/03/07 10:11:17;;;;;;;8.05;5.80;;;;;;;;;;5136336;27;20035;-77
2021/03/07 10:13:43;;;;;;;7.72;5.72;;;;;;;;;;5136059;27;20035;-76
2021/03/07 10:16:09;;;;;;;12.60;6.40;;;;;;;;;;5135984;27;20468;-76
2021/03/07 10:18:35;;;;;;;10.98;6.18;;;;;;;;;;5117276;27;20111;-77
2021/03/07 10:21:01;;;;;;;10.63;6.15;;;;;;;;;;5136211;27;20063;-75
2021/03/07 10:23:31;;;;;;;12.15;8.50;;;;;;;;;;5116952;27;20036;-80
2021/03/07 10:25:58;;;;;;;10.70;6.93;;;;;;;;;;5115452;28;20032;-76
2021/03/07 10:28:25;;;;;;;12.07;5.18;;;;;;;;;;5115366;28;20027;-77
2021/03/07 10:30:55;;;;;;;7.20;3.95;;;;;;;;;;5115299;28;20043;-77
2021/03/07 10:33:28;;;;;;;8.90;3.47;;;;;;;;;;5096605;28;20466;-77
2021/03/07 10:36:05;;;;;;;5.15;2.95;;;;;;;;;;5114573;28;20043;-76
2021/03/07 10:38:33;;;;;;;5.90;3.20;;;;;;;;;;5113950;28;20032;-76
2021/03/07 10:40:58;;;;;;;4.57;2.90;;;;;;;;;;5114008;28;20470;-77
2021/03/07 10:43:24;;;;;;;4.95;2.67;;;;;;;;;;5114950;28;20040;-78
2021/03/07 10:45:51;;;;;;;4.95;2.80;;;;;;;;;;5117789;28;20086;-77
2021/03/07 10:48:16;;;;;;;5.47;2.92;;;;;;;;;;5115700;28;20073;-77
2021/03/07 10:50:46;;;;;;;4.50;2.72;;;;;;;;;;5117856;28;20035;-79
2021/03/07 10:53:12;;;;;;;5.20;2.88;;;;;;;;;;5115811;27;20404;-78
2021/03/07 10:55:38;;;;;;;4.30;2.90;;;;;;;;;;5134740;27;20043;-77
2021/03/07 10:58:05;;;;;;;6.40;2.60;;;;;;;;;;5116706;27;20034;-75
2021/03/07 11:00:31;;;;;;;6.78;2.67;;;;;;;;;;5135501;27;20494;-75
2021/03/07 11:02:57;;;;;;;4.68;2.75;;;;;;;;;;5134898;27;20046;-76
2021/03/07 11:05:23;;;;;;;5.00;2.60;;;;;;;;;;5135764;27;20050;-77
2021/03/07 11:07:49;;;;;;;5.63;2.78;;;;;;;;;;5134629;27;20063;-76
2021/03/07 11:10:21;;;;;;;3.70;2.80;;;;;;;;;;5134842;27;20070;-76
2021/03/07 11:12:46;;;;;;;5.38;3.15;;;;;;;;;;5134929;27;20039;-73
2021/03/07 11:15:13;;;;;;;4.05;2.50;;;;;;;;;;5134730;27;20027;-76
2021/03/07 11:17:40;;;;;;;5.68;2.88;;;;;;;;;;5134785;27;20039;-76
2021/03/07 11:20:07;;;;;;;4.38;2.80;;;;;;;;;;5134395;27;20041;-75
2021/03/07 11:22:33;;;;;;;5.97;2.85;;;;;;;;;;5115935;27;20039;-75
2021/03/07 11:24:59;;;;;;;3.67;2.50;;;;;;;;;;5127476;27;20034;-75
2021/03/07 11:27:24;;;;;;;8.20;2.83;;;;;;;;;;5101385;28;20417;-73
2021/03/07 11:29:50;;;;;;;6.38;3.00;;;;;;;;;;5113802;28;20031;-75
2021/03/07 11:32:15;;;;;;;7.57;2.90;;;;;;;;;;5132896;27;20027;-74
2021/03/07 11:34:40;;;;;;;4.55;3.03;;;;;;;;;;5134316;27;20483;-74
2021/03/07 11:37:06;;;;;;;5.43;2.75;;;;;;;;;;5134645;27;20480;-78
2021/03/07 11:39:32;;;;;;;5.65;2.83;;;;;;;;;;5134920;27;20084;-75
2021/03/07 11:41:58;;;;;;;5.43;2.92;;;;;;;;;;5134267;27;20059;-73
2021/03/07 11:44:23;;;;;;;3.10;2.53;;;;;;;;;;5133990;28;20077;-74
2021/03/07 11:46:53;;;;;;;7.18;3.25;;;;;;;;;;5133529;28;20024;-72
2021/03/07 11:49:22;;;;;;;5.70;3.13;;;;;;;;;;5134246;28;20035;-74
2021/03/07 11:51:47;;;;;;;4.00;2.30;;;;;;;;;;5134871;28;20118;-78
2021/03/07 11:54:13;;;;;;;3.40;2.40;;;;;;;;;;5118132;28;20471;-76
2021/03/07 11:56:39;;;;;;;6.72;2.75;;;;;;;;;;5118178;27;20060;-76
2021/03/07 11:59:04;;;;;;;5.53;2.72;;;;;;;;;;5137724;27;20096;-74
2021/03/07 12:01:30;;;;;;;5.05;2.97;;;;;;;;;;5138188;27;20039;-75
2021/03/07 12:03:55;;;;;;;5.95;3.38;;;;;;;;;;5138320;27;20019;-72
2021/03/07 12:06:20;;;;;;;5.30;2.60;;;;;;;;;;5119222;27;20031;-73
2021/03/07 12:08:46;;;;;;;3.22;2.20;;;;;;;;;;5138330;27;20053;-76
2021/03/07 12:11:11;;;;;;;4.07;2.67;;;;;;;;;;5138303;27;20145;-73
2021/03/07 12:13:37;;;;;;;3.88;2.45;;;;;;;;;;5138065;27;20027;-74
2021/03/07 12:16:02;;;;;;;4.18;2.30;;;;;;;;;;5138620;27;20035;-77
2021/03/07 12:18:28;;;;;;;4.95;2.67;;;;;;;;;;5137601;27;20118;-75
2021/03/07 12:20:53;;;;;;;7.93;2.67;;;;;;;;;;5138260;27;20035;-73
2021/03/07 12:23:19;;;;;;;3.97;2.28;;;;;;;;;;5138005;27;20042;-71
2021/03/07 12:25:44;;;;;;;5.18;2.58;;;;;;;;;;5138233;27;20209;-75
2021/03/07 12:28:09;;;;;;;3.47;2.67;;;;;;;;;;5137788;27;20088;-75
2021/03/07 12:30:35;;;;;;;6.43;3.00;;;;;;;;;;5137739;27;20035;-74
2021/03/07 12:33:00;;;;;;;3.50;2.53;;;;;;;;;;5119452;27;20031;-75
2021/03/07 12:35:26;;;;;;;3.00;2.20;;;;;;;;;;5137548;27;20487;-74
2021/03/07 12:37:51;;;;;;;5.15;2.60;;;;;;;;;;5137394;27;20117;-74
2021/03/07 12:40:17;;;;;;;4.53;2.33;;;;;;;;;;5137311;27;20031;-75
2021/03/07 12:42:43;;;;;;;6.70;2.83;;;;;;;;;;5119156;27;20126;-75
2021/03/07 12:45:09;;;;;;;3.80;2.40;;;;;;;;;;5134312;27;20057;-76
2021/03/07 12:47:35;;;;;;;5.15;2.40;;;;;;;;;;5126026;27;20085;-75
2021/03/07 12:50:02;;;;;;;4.25;2.55;;;;;;;;;;5127538;27;20023;-74
2021/03/07 12:52:28;;;;;;;8.43;2.83;;;;;;;;;;5104865;27;20426;-75
2021/03/07 12:54:54;;;;;;;3.92;2.30;;;;;;;;;;5134340;27;20035;-74
2021/03/07 12:57:19;;;;;;;4.57;2.75;;;;;;;;;;5135795;27;20050;-74
2021/03/07 12:59:44;;;;;;;4.60;2.15;;;;;;;;;;5136230;27;20365;-74
2021/03/07 13:02:10;;;;;;;4.38;2.25;;;;;;;;;;5136342;27;20046;-73
2021/03/07 13:04:35;;;;;;;5.03;2.20;;;;;;;;;;5118014;27;20031;-73
2021/03/07 13:07:00;;;;;;;6.63;2.22;;;;;;;;;;5136063;27;20031;-73
2021/03/07 13:09:26;;;;;;;4.75;2.20;;;;;;;;;;5137106;27;20031;-74
2021/03/07 13:11:51;;;;;;;4.70;2.17;;;;;;;;;;5118743;27;20039;-73
2021/03/07 13:14:17;;;;;;;5.28;1.90;;;;;;;;;;5118490;27;20035;-74
2021/03/07 13:16:42;;;;;;;4.15;2.10;;;;;;;;;;5136904;27;20404;-74
2021/03/07 13:19:07;;;;;;;3.10;2.22;;;;;;;;;;5136939;27;20127;-74
2021/03/07 13:21:33;;;;;;;9.15;2.58;;;;;;;;;;5137058;27;20062;-74
2021/03/07 13:23:58;;;;;;;3.50;2.10;;;;;;;;;;5136107;27;20556;-74
2021/03/07 13:26:24;;;;;;;4.25;2.15;;;;;;;;;;5136734;27;20058;-74
2021/03/07 13:28:50;;;;;;;3.30;1.98;;;;;;;;;;5136635;27;20031;-74
2021/03/07 13:31:15;;;;;;;3.22;2.10;;;;;;;;;;5136578;27;20521;-74
2021/03/07 13:33:41;;;;;;;4.30;2.53;;;;;;;;;;5136773;27;20456;-74
2021/03/07 13:36:09;;;;;;;4.78;2.22;;;;;;;;;;5101144;27;20039;-74
2021/03/07 13:38:35;;;;;;;2.63;2.03;;;;;;;;;;5135999;27;20040;-74
2021/03/07 13:41:01;;;;;;;4.25;1.77;;;;;;;;;;5136310;27;20106;-74
2021/03/07 13:43:26;;;;;;;6.30;1.85;;;;;;;;;;5136468;27;20062;-74
2021/03/07 13:45:52;;;;;;;4.07;2.08;;;;;;;;;;5117825;27;20047;-74
2021/03/07 13:48:17;;;;;;;5.20;2.17;;;;;;;;;;5136433;27;20023;-74
2021/03/07 13:50:43;;;;;;;5.20;1.75;;;;;;;;;;5136295;27;20544;-74
2021/03/07 13:53:11;;;;;;;4.32;1.88;;;;;;;;;;5136335;27;20039;-74
2021/03/07 13:55:36;;;;;;;5.22;2.60;;;;;;;;;;5136045;27;20042;-74
2021/03/07 13:58:02;;;;;;;5.72;2.00;;;;;;;;;;5136107;27;20393;-73
2021/03/07 14:00:28;;;;;;;3.50;2.00;;;;;;;;;;5117762;27;20039;-74
2021/03/07 14:02:53;;;;;;;3.75;2.10;;;;;;;;;;5135904;27;20453;-74
2021/03/07 14:05:19;;;;;;;3.67;1.98;;;;;;;;;;5135763;27;20039;-74
2021/03/07 14:07:45;;;;;;;2.10;1.80;;;;;;;;;;5117614;27;20083;-74
2021/03/07 14:10:14;;;;;;;5.13;2.00;;;;;;;;;;5134975;27;20031;-74
2021/03/07 14:12:40;;;;;;;4.15;2.08;;;;;;;;;;5117621;27;20070;-73
2021/03/07 14:15:08;;;;;;;3.17;1.88;;;;;;;;;;5135753;27;20070;-74
2021/03/07 14:17:33;;;;;;;3.03;2.15;;;;;;;;;;5135651;27;20070;-74
2021/03/07 14:19:58;;;;;;;4.70;1.95;;;;;;;;;;5134069;27;20072;-74
2021/03/07 14:22:26;;;;;;;4.47;2.20;;;;;;;;;;5135661;27;20042;-74
2021/03/07 14:24:51;;;;;;;4.35;2.13;;;;;;;;;;5135448;27;20027;-74
2021/03/07 14:27:17;;;;;;;2.28;1.80;;;;;;;;;;5117204;27;20491;-74
2021/03/07 14:29:43;;;;;;;2.63;1.92;;;;;;;;;;5135492;27;20079;-74
2021/03/07 14:32:09;;;;;;;6.75;3.13;;;;;;;;;;5135220;27;20045;-74
2021/03/07 14:34:34;;;;;;;2.42;1.52;;;;;;;;;;5135087;27;20031;-73
2021/03/07 14:37:00;;;;;;;4.38;2.28;;;;;;;;;;5117165;27;20031;-74
2021/03/07 14:39:25;;;;;;;3.40;1.90;;;;;;;;;;5116789;27;20099;-74
2021/03/07 14:41:51;;;;;;;2.95;1.70;;;;;;;;;;5135189;27;20031;-74
2021/03/07 14:44:16;;;;;;;1.95;1.60;;;;;;;;;;5135096;27;20514;-74